sensor_id;sensor_type;location;lat;lon;timestamp;P1;durP1;ratioP1;P2;durP2;ratioP2
40459;SDS011;26164;51.138;16.952;2023-04-12T00:01:26;23.27;;;10.90;;
40459;SDS011;26164;51.138;16.952;2023-04-12T00:04:08;24.45;;;11.35;;
40459;SDS011;26164;51.138;16.952;2023-04-12T00:06:39;23.92;;;11.45;;
40459;SDS011;26164;51.138;16.952;2023-04-12T00:09:05;21.98;;;10.95;;
40459;SDS011;26164;51.138;16.952;2023-04-12T00:11:33;23.50;;;11.20;;
40459;SDS011;26164;51.138;16.952;2023-04-12T00:13:59;22.55;;;11.02;;
40459;SDS011;26164;51.138;16.952;2023-04-12T00:16:25;19.55;;;11.55;;
40459;SDS011;26164;51.138;16.952;2023-04-12T00:18:51;23.95;;;11.55;;
40459;SDS011;26164;51.138;16.952;2023-04-12T00:21:17;21.20;;;11.95;;
40459;SDS011;26164;51.138;16.952;2023-04-12T00:23:46;22.95;;;11.63;;
40459;SDS011;26164;51.138;16.952;2023-04-12T00:26:14;20.65;;;10.82;;
40459;SDS011;26164;51.138;16.952;2023-04-12T00:28:41;24.65;;;10.88;;
40459;SDS011;26164;51.138;16.952;2023-04-12T00:31:08;23.70;;;10.85;;
40459;SDS011;26164;51.138;16.952;2023-04-12T00:33:37;16.70;;;9.95;;
40459;SDS011;26164;51.138;16.952;2023-04-12T00:36:05;24.83;;;10.88;;
40459;SDS011;26164;51.138;16.952;2023-04-12T00:38:31;21.70;;;10.27;;
40459;SDS011;26164;51.138;16.952;2023-04-12T00:41:02;17.25;;;8.57;;
40459;SDS011;26164;51.138;16.952;2023-04-12T00:43:28;18.80;;;9.85;;
40459;SDS011;26164;51.138;16.952;2023-04-12T00:46:02;17.25;;;8.80;;
40459;SDS011;26164;51.138;16.952;2023-04-12T00:48:29;15.00;;;7.70;;
40459;SDS011;26164;51.138;16.952;2023-04-12T00:51:00;15.30;;;8.25;;
40459;SDS011;26164;51.138;16.952;2023-04-12T00:53:28;14.07;;;8.10;;
40459;SDS011;26164;51.138;16.952;2023-04-12T00:56:09;15.43;;;7.57;;
40459;SDS011;26164;51.138;16.952;2023-04-12T00:58:54;13.83;;;7.40;;
40459;SDS011;26164;51.138;16.952;2023-04-12T01:01:36;13.07;;;6.57;;
40459;SDS011;26164;51.138;16.952;2023-04-12T01:04:21;16.45;;;7.22;;
40459;SDS011;26164;51.138;16.952;2023-04-12T01:15:20;13.80;;;6.05;;
40459;SDS011;26164;51.138;16.952;2023-04-12T01:18:13;8.73;;;5.65;;
40459;SDS011;26164;51.138;16.952;2023-04-12T01:26:43;11.45;;;5.57;;
40459;SDS011;26164;51.138;16.952;2023-04-12T01:29:14;13.20;;;5.63;;
40459;SDS011;26164;51.138;16.952;2023-04-12T01:31:45;24.23;;;5.75;;
40459;SDS011;26164;51.138;16.952;2023-04-12T01:34:29;17.67;;;5.25;;
40459;SDS011;26164;51.138;16.952;2023-04-12T01:37:02;10.73;;;4.93;;
40459;SDS011;26164;51.138;16.952;2023-04-12T01:39:29;11.90;;;4.85;;
40459;SDS011;26164;51.138;16.952;2023-04-12T01:42:17;11.80;;;4.45;;
40459;SDS011;26164;51.138;16.952;2023-04-12T01:44:57;10.45;;;4.93;;
40459;SDS011;26164;51.138;16.952;2023-04-12T01:47:38;12.00;;;4.88;;
40459;SDS011;26164;51.138;16.952;2023-04-12T01:50:21;17.17;;;5.10;;
40459;SDS011;26164;51.138;16.952;2023-04-12T01:53:07;10.48;;;4.97;;
40459;SDS011;26164;51.138;16.952;2023-04-12T01:55:50;13.10;;;4.80;;
40459;SDS011;26164;51.138;16.952;2023-04-12T01:58:22;12.57;;;5.35;;
40459;SDS011;26164;51.138;16.952;2023-04-12T02:00:50;13.30;;;5.55;;
40459;SDS011;26164;51.138;16.952;2023-04-12T02:03:31;12.32;;;4.90;;
40459;SDS011;26164;51.138;16.952;2023-04-12T02:06:13;14.15;;;5.45;;
40459;SDS011;26164;51.138;16.952;2023-04-12T02:09:00;11.23;;;4.80;;
40459;SDS011;26164;51.138;16.952;2023-04-12T02:12:07;10.68;;;4.20;;
40459;SDS011;26164;51.138;16.952;2023-04-12T02:14:57;9.65;;;4.50;;
40459;SDS011;26164;51.138;16.952;2023-04-12T02:17:39;11.80;;;4.50;;
40459;SDS011;26164;51.138;16.952;2023-04-12T02:20:24;8.80;;;4.40;;
40459;SDS011;26164;51.138;16.952;2023-04-12T02:23:06;15.73;;;4.47;;
40459;SDS011;26164;51.138;16.952;2023-04-12T02:25:47;9.57;;;4.72;;
40459;SDS011;26164;51.138;16.952;2023-04-12T02:28:29;10.25;;;4.28;;
40459;SDS011;26164;51.138;16.952;2023-04-12T02:30:56;12.15;;;5.68;;
40459;SDS011;26164;51.138;16.952;2023-04-12T02:33:23;10.40;;;4.60;;
40459;SDS011;26164;51.138;16.952;2023-04-12T02:35:58;11.95;;;4.93;;
40459;SDS011;26164;51.138;16.952;2023-04-12T02:38:27;11.00;;;4.63;;
40459;SDS011;26164;51.138;16.952;2023-04-12T02:40:54;10.05;;;4.82;;
40459;SDS011;26164;51.138;16.952;2023-04-12T02:43:20;11.63;;;4.78;;
40459;SDS011;26164;51.138;16.952;2023-04-12T02:45:55;9.10;;;4.68;;
40459;SDS011;26164;51.138;16.952;2023-04-12T02:48:21;12.82;;;5.10;;
40459;SDS011;26164;51.138;16.952;2023-04-12T02:50:48;10.38;;;4.63;;
40459;SDS011;26164;51.138;16.952;2023-04-12T02:53:17;13.77;;;4.60;;
40459;SDS011;26164;51.138;16.952;2023-04-12T02:56:07;11.02;;;4.57;;
40459;SDS011;26164;51.138;16.952;2023-04-12T02:58:34;16.63;;;5.32;;
40459;SDS011;26164;51.138;16.952;2023-04-12T03:01:01;12.57;;;6.22;;
40459;SDS011;26164;51.138;16.952;2023-04-12T03:03:41;15.63;;;6.22;;
40459;SDS011;26164;51.138;16.952;2023-04-12T03:06:26;15.02;;;6.65;;
40459;SDS011;26164;51.138;16.952;2023-04-12T03:08:55;19.10;;;7.20;;
40459;SDS011;26164;51.138;16.952;2023-04-12T03:11:25;16.65;;;6.88;;
40459;SDS011;26164;51.138;16.952;2023-04-12T03:14:21;18.35;;;7.80;;
40459;SDS011;26164;51.138;16.952;2023-04-12T03:17:08;20.02;;;8.82;;
40459;SDS011;26164;51.138;16.952;2023-04-12T03:20:06;18.90;;;9.00;;
40459;SDS011;26164;51.138;16.952;2023-04-12T03:23:10;22.33;;;10.30;;
40459;SDS011;26164;51.138;16.952;2023-04-12T03:26:29;26.30;;;11.07;;
40459;SDS011;26164;51.138;16.952;2023-04-12T03:29:30;21.63;;;10.50;;
40459;SDS011;26164;51.138;16.952;2023-04-12T03:32:02;25.60;;;11.30;;
40459;SDS011;26164;51.138;16.952;2023-04-12T03:34:28;24.60;;;9.43;;
40459;SDS011;26164;51.138;16.952;2023-04-12T03:37:18;21.95;;;10.32;;
40459;SDS011;26164;51.138;16.952;2023-04-12T03:40:01;19.40;;;8.50;;
40459;SDS011;26164;51.138;16.952;2023-04-12T03:42:48;21.33;;;8.43;;
40459;SDS011;26164;51.138;16.952;2023-04-12T03:45:31;19.15;;;8.43;;
40459;SDS011;26164;51.138;16.952;2023-04-12T03:48:15;22.88;;;8.60;;
40459;SDS011;26164;51.138;16.952;2023-04-12T03:50:46;18.35;;;8.43;;
40459;SDS011;26164;51.138;16.952;2023-04-12T03:53:20;17.45;;;8.52;;
40459;SDS011;26164;51.138;16.952;2023-04-12T03:56:03;17.58;;;8.02;;
40459;SDS011;26164;51.138;16.952;2023-04-12T03:58:45;20.75;;;9.32;;
40459;SDS011;26164;51.138;16.952;2023-04-12T04:01:28;17.55;;;8.43;;
40459;SDS011;26164;51.138;16.952;2023-04-12T04:04:10;22.77;;;9.70;;
40459;SDS011;26164;51.138;16.952;2023-04-12T04:06:38;22.40;;;9.75;;
40459;SDS011;26164;51.138;16.952;2023-04-12T04:09:34;16.13;;;8.18;;
40459;SDS011;26164;51.138;16.952;2023-04-12T04:12:15;21.27;;;9.00;;
40459;SDS011;26164;51.138;16.952;2023-04-12T04:15:02;18.25;;;8.88;;
40459;SDS011;26164;51.138;16.952;2023-04-12T04:17:45;24.25;;;9.63;;
40459;SDS011;26164;51.138;16.952;2023-04-12T04:20:28;19.95;;;9.43;;
40459;SDS011;26164;51.138;16.952;2023-04-12T04:22:54;21.50;;;9.35;;
40459;SDS011;26164;51.138;16.952;2023-04-12T04:25:23;20.60;;;9.07;;
40459;SDS011;26164;51.138;16.952;2023-04-12T04:27:58;21.35;;;10.15;;
40459;SDS011;26164;51.138;16.952;2023-04-12T04:30:27;22.15;;;9.90;;
40459;SDS011;26164;51.138;16.952;2023-04-12T04:32:54;20.85;;;9.13;;
40459;SDS011;26164;51.138;16.952;2023-04-12T04:35:23;24.13;;;9.70;;
40459;SDS011;26164;51.138;16.952;2023-04-12T04:38:13;21.25;;;9.27;;
40459;SDS011;26164;51.138;16.952;2023-04-12T04:40:40;17.85;;;9.18;;
40459;SDS011;26164;51.138;16.952;2023-04-12T04:43:08;20.38;;;9.55;;
40459;SDS011;26164;51.138;16.952;2023-04-12T04:45:40;23.02;;;9.05;;
40459;SDS011;26164;51.138;16.952;2023-04-12T04:48:06;22.75;;;9.48;;
40459;SDS011;26164;51.138;16.952;2023-04-12T04:50:31;20.33;;;9.48;;
40459;SDS011;26164;51.138;16.952;2023-04-12T04:53:01;18.98;;;8.65;;
40459;SDS011;26164;51.138;16.952;2023-04-12T04:55:30;24.65;;;11.63;;
40459;SDS011;26164;51.138;16.952;2023-04-12T04:57:57;33.33;;;11.10;;
40459;SDS011;26164;51.138;16.952;2023-04-12T05:00:23;25.63;;;9.98;;
40459;SDS011;26164;51.138;16.952;2023-04-12T05:02:56;16.10;;;8.48;;
40459;SDS011;26164;51.138;16.952;2023-04-12T05:17:11;19.83;;;8.27;;
40459;SDS011;26164;51.138;16.952;2023-04-12T05:19:48;16.35;;;7.68;;
40459;SDS011;26164;51.138;16.952;2023-04-12T05:22:48;18.20;;;8.20;;
40459;SDS011;26164;51.138;16.952;2023-04-12T05:25:48;18.05;;;7.82;;
40459;SDS011;26164;51.138;16.952;2023-04-12T05:28:31;19.00;;;7.22;;
40459;SDS011;26164;51.138;16.952;2023-04-12T05:35:19;14.70;;;7.28;;
40459;SDS011;26164;51.138;16.952;2023-04-12T05:38:11;15.82;;;7.93;;
40459;SDS011;26164;51.138;16.952;2023-04-12T05:40:59;18.92;;;7.80;;
40459;SDS011;26164;51.138;16.952;2023-04-12T05:47:25;14.00;;;5.95;;
40459;SDS011;26164;51.138;16.952;2023-04-12T05:54:20;13.38;;;6.60;;
40459;SDS011;26164;51.138;16.952;2023-04-12T05:57:10;12.60;;;6.03;;
40459;SDS011;26164;51.138;16.952;2023-04-12T06:02:58;14.10;;;6.45;;
40459;SDS011;26164;51.138;16.952;2023-04-12T06:05:28;20.38;;;6.82;;
40459;SDS011;26164;51.138;16.952;2023-04-12T06:07:54;15.40;;;6.47;;
40459;SDS011;26164;51.138;16.952;2023-04-12T06:10:31;17.98;;;7.07;;
40459;SDS011;26164;51.138;16.952;2023-04-12T06:13:20;16.15;;;6.40;;
40459;SDS011;26164;51.138;16.952;2023-04-12T06:16:01;14.25;;;6.20;;
40459;SDS011;26164;51.138;16.952;2023-04-12T06:18:29;15.57;;;6.93;;
40459;SDS011;26164;51.138;16.952;2023-04-12T06:20:55;15.60;;;6.47;;
40459;SDS011;26164;51.138;16.952;2023-04-12T06:23:34;15.73;;;6.72;;
40459;SDS011;26164;51.138;16.952;2023-04-12T06:26:11;12.48;;;6.40;;
40459;SDS011;26164;51.138;16.952;2023-04-12T06:28:42;13.27;;;6.25;;
40459;SDS011;26164;51.138;16.952;2023-04-12T06:31:15;14.55;;;6.18;;
40459;SDS011;26164;51.138;16.952;2023-04-12T06:33:59;15.43;;;6.45;;
40459;SDS011;26164;51.138;16.952;2023-04-12T06:36:39;16.38;;;6.53;;
40459;SDS011;26164;51.138;16.952;2023-04-12T06:39:27;21.90;;;7.05;;
40459;SDS011;26164;51.138;16.952;2023-04-12T06:41:54;18.58;;;7.60;;
40459;SDS011;26164;51.138;16.952;2023-04-12T06:44:26;23.42;;;7.32;;
40459;SDS011;26164;51.138;16.952;2023-04-12T06:46:59;21.42;;;7.35;;
40459;SDS011;26164;51.138;16.952;2023-04-12T06:49:25;20.10;;;7.95;;
40459;SDS011;26164;51.138;16.952;2023-04-12T06:52:08;21.65;;;7.07;;
40459;SDS011;26164;51.138;16.952;2023-04-12T06:54:40;24.58;;;7.85;;
40459;SDS011;26164;51.138;16.952;2023-04-12T06:57:10;17.40;;;7.85;;
40459;SDS011;26164;51.138;16.952;2023-04-12T06:59:46;17.92;;;6.68;;
40459;SDS011;26164;51.138;16.952;2023-04-12T07:02:12;17.25;;;6.43;;
40459;SDS011;26164;51.138;16.952;2023-04-12T07:04:46;19.88;;;6.75;;
40459;SDS011;26164;51.138;16.952;2023-04-12T07:07:12;20.45;;;7.53;;
40459;SDS011;26164;51.138;16.952;2023-04-12T07:09:45;13.18;;;6.65;;
40459;SDS011;26164;51.138;16.952;2023-04-12T07:12:17;14.90;;;6.75;;
40459;SDS011;26164;51.138;16.952;2023-04-12T07:14:45;21.42;;;7.15;;
40459;SDS011;26164;51.138;16.952;2023-04-12T07:17:14;21.40;;;7.47;;
40459;SDS011;26164;51.138;16.952;2023-04-12T07:19:50;16.58;;;7.22;;
40459;SDS011;26164;51.138;16.952;2023-04-12T07:22:20;31.15;;;8.23;;
40459;SDS011;26164;51.138;16.952;2023-04-12T07:24:56;18.02;;;6.53;;
40459;SDS011;26164;51.138;16.952;2023-04-12T07:27:52;20.33;;;6.38;;
40459;SDS011;26164;51.138;16.952;2023-04-12T07:30:56;17.15;;;6.18;;
40459;SDS011;26164;51.138;16.952;2023-04-12T07:33:47;14.38;;;6.38;;
40459;SDS011;26164;51.138;16.952;2023-04-12T07:36:33;14.73;;;5.13;;
40459;SDS011;26164;51.138;16.952;2023-04-12T07:39:29;14.85;;;5.50;;
40459;SDS011;26164;51.138;16.952;2023-04-12T07:42:24;10.70;;;4.55;;
40459;SDS011;26164;51.138;16.952;2023-04-12T07:45:10;8.90;;;4.28;;
40459;SDS011;26164;51.138;16.952;2023-04-12T07:47:37;11.45;;;5.20;;
40459;SDS011;26164;51.138;16.952;2023-04-12T07:50:05;15.23;;;5.45;;
40459;SDS011;26164;51.138;16.952;2023-04-12T07:52:35;12.90;;;4.53;;
40459;SDS011;26164;51.138;16.952;2023-04-12T07:55:03;9.85;;;4.85;;
40459;SDS011;26164;51.138;16.952;2023-04-12T07:57:30;12.25;;;3.78;;
40459;SDS011;26164;51.138;16.952;2023-04-12T07:59:59;12.32;;;4.25;;
40459;SDS011;26164;51.138;16.952;2023-04-12T08:02:26;10.20;;;4.45;;
40459;SDS011;26164;51.138;16.952;2023-04-12T08:04:54;9.88;;;4.45;;
40459;SDS011;26164;51.138;16.952;2023-04-12T08:07:20;11.77;;;4.10;;
40459;SDS011;26164;51.138;16.952;2023-04-12T08:09:47;10.27;;;3.53;;
40459;SDS011;26164;51.138;16.952;2023-04-12T08:12:31;14.48;;;6.13;;
40459;SDS011;26164;51.138;16.952;2023-04-12T08:14:58;11.63;;;3.42;;
40459;SDS011;26164;51.138;16.952;2023-04-12T08:17:29;12.02;;;2.90;;
40459;SDS011;26164;51.138;16.952;2023-04-12T08:19:57;6.60;;;2.55;;
40459;SDS011;26164;51.138;16.952;2023-04-12T08:22:23;7.07;;;2.72;;
40459;SDS011;26164;51.138;16.952;2023-04-12T08:24:51;8.35;;;2.50;;
40459;SDS011;26164;51.138;16.952;2023-04-12T08:27:20;8.02;;;2.50;;
40459;SDS011;26164;51.138;16.952;2023-04-12T08:29:50;8.82;;;2.08;;
40459;SDS011;26164;51.138;16.952;2023-04-12T08:32:25;6.90;;;2.08;;
40459;SDS011;26164;51.138;16.952;2023-04-12T08:35:08;9.18;;;3.15;;
40459;SDS011;26164;51.138;16.952;2023-04-12T08:37:39;6.38;;;2.22;;
40459;SDS011;26164;51.138;16.952;2023-04-12T08:40:15;6.75;;;1.90;;
40459;SDS011;26164;51.138;16.952;2023-04-12T08:43:30;4.47;;;1.40;;
40459;SDS011;26164;51.138;16.952;2023-04-12T08:48:58;6.10;;;2.20;;
40459;SDS011;26164;51.138;16.952;2023-04-12T08:51:46;7.32;;;1.50;;
40459;SDS011;26164;51.138;16.952;2023-04-12T08:54:31;5.45;;;1.80;;
40459;SDS011;26164;51.138;16.952;2023-04-12T08:57:07;4.40;;;1.88;;
40459;SDS011;26164;51.138;16.952;2023-04-12T08:59:36;6.13;;;1.60;;
40459;SDS011;26164;51.138;16.952;2023-04-12T09:02:03;6.57;;;1.75;;
40459;SDS011;26164;51.138;16.952;2023-04-12T09:04:29;6.82;;;1.50;;
40459;SDS011;26164;51.138;16.952;2023-04-12T09:06:58;6.72;;;1.52;;
40459;SDS011;26164;51.138;16.952;2023-04-12T09:09:43;6.15;;;1.60;;
40459;SDS011;26164;51.138;16.952;2023-04-12T09:12:31;8.50;;;1.77;;
40459;SDS011;26164;51.138;16.952;2023-04-12T09:15:04;8.63;;;1.80;;
40459;SDS011;26164;51.138;16.952;2023-04-12T09:18:01;10.20;;;1.85;;
40459;SDS011;26164;51.138;16.952;2023-04-12T09:20:43;3.83;;;1.60;;
40459;SDS011;26164;51.138;16.952;2023-04-12T09:23:42;7.15;;;1.70;;
40459;SDS011;26164;51.138;16.952;2023-04-12T09:26:04;9.52;;;1.80;;
40459;SDS011;26164;51.138;16.952;2023-04-12T09:28:33;4.55;;;1.80;;
40459;SDS011;26164;51.138;16.952;2023-04-12T10:22:30;4.28;;;1.65;;
40459;SDS011;26164;51.138;16.952;2023-04-12T10:25:37;4.32;;;1.90;;
40459;SDS011;26164;51.138;16.952;2023-04-12T10:28:17;5.00;;;1.88;;
40459;SDS011;26164;51.138;16.952;2023-04-12T10:31:46;4.05;;;1.40;;
40459;SDS011;26164;51.138;16.952;2023-04-12T10:35:00;5.30;;;1.75;;
40459;SDS011;26164;51.138;16.952;2023-04-12T10:55:40;6.32;;;1.75;;
40459;SDS011;26164;51.138;16.952;2023-04-12T10:59:20;7.13;;;1.55;;
40459;SDS011;26164;51.138;16.952;2023-04-12T11:34:23;2.55;;;0.80;;
40459;SDS011;26164;51.138;16.952;2023-04-12T11:40:24;3.70;;;1.45;;
40459;SDS011;26164;51.138;16.952;2023-04-12T11:43:31;7.63;;;1.10;;
40459;SDS011;26164;51.138;16.952;2023-04-12T11:46:32;5.57;;;1.17;;
40459;SDS011;26164;51.138;16.952;2023-04-12T11:49:30;3.88;;;1.02;;
40459;SDS011;26164;51.138;16.952;2023-04-12T11:52:07;4.18;;;1.60;;
40459;SDS011;26164;51.138;16.952;2023-04-12T11:57:45;6.43;;;1.20;;
40459;SDS011;26164;51.138;16.952;2023-04-12T12:00:30;7.50;;;1.38;;
40459;SDS011;26164;51.138;16.952;2023-04-12T12:02:58;4.82;;;1.50;;
40459;SDS011;26164;51.138;16.952;2023-04-12T12:05:32;3.13;;;1.02;;
40459;SDS011;26164;51.138;16.952;2023-04-12T12:08:02;4.45;;;1.00;;
40459;SDS011;26164;51.138;16.952;2023-04-12T12:11:01;3.92;;;1.15;;
40459;SDS011;26164;51.138;16.952;2023-04-12T12:16:39;4.57;;;1.10;;
40459;SDS011;26164;51.138;16.952;2023-04-12T12:19:15;6.25;;;1.15;;
40459;SDS011;26164;51.138;16.952;2023-04-12T12:24:22;4.80;;;1.35;;
40459;SDS011;26164;51.138;16.952;2023-04-12T12:26:53;3.00;;;1.20;;
40459;SDS011;26164;51.138;16.952;2023-04-12T12:29:40;7.05;;;1.50;;
40459;SDS011;26164;51.138;16.952;2023-04-12T12:32:11;4.47;;;1.20;;
40459;SDS011;26164;51.138;16.952;2023-04-12T12:35:08;4.50;;;1.27;;
40459;SDS011;26164;51.138;16.952;2023-04-12T12:41:17;2.38;;;1.02;;
40459;SDS011;26164;51.138;16.952;2023-04-12T12:44:01;5.72;;;1.25;;
40459;SDS011;26164;51.138;16.952;2023-04-12T12:46:39;6.32;;;1.45;;
40459;SDS011;26164;51.138;16.952;2023-04-12T12:49:19;5.55;;;1.45;;
40459;SDS011;26164;51.138;16.952;2023-04-12T12:52:01;5.40;;;1.40;;
40459;SDS011;26164;51.138;16.952;2023-04-12T12:54:38;4.30;;;1.40;;
40459;SDS011;26164;51.138;16.952;2023-04-12T12:57:06;5.53;;;1.38;;
40459;SDS011;26164;51.138;16.952;2023-04-12T12:59:36;7.38;;;1.27;;
40459;SDS011;26164;51.138;16.952;2023-04-12T13:02:25;4.03;;;1.30;;
40459;SDS011;26164;51.138;16.952;2023-04-12T13:04:55;3.85;;;1.10;;
40459;SDS011;26164;51.138;16.952;2023-04-12T13:07:35;9.45;;;1.20;;
40459;SDS011;26164;51.138;16.952;2023-04-12T13:10:06;5.00;;;1.17;;
40459;SDS011;26164;51.138;16.952;2023-04-12T13:12:42;2.60;;;1.20;;
40459;SDS011;26164;51.138;16.952;2023-04-12T13:15:23;3.80;;;1.20;;
40459;SDS011;26164;51.138;16.952;2023-04-12T13:21:03;4.32;;;1.13;;
40459;SDS011;26164;51.138;16.952;2023-04-12T13:23:57;4.03;;;1.48;;
40459;SDS011;26164;51.138;16.952;2023-04-12T13:26:44;4.80;;;1.05;;
40459;SDS011;26164;51.138;16.952;2023-04-12T13:29:34;2.40;;;1.10;;
40459;SDS011;26164;51.138;16.952;2023-04-12T13:32:10;5.85;;;1.40;;
40459;SDS011;26164;51.138;16.952;2023-04-12T13:35:32;3.08;;;1.05;;
40459;SDS011;26164;51.138;16.952;2023-04-12T13:38:17;3.60;;;1.20;;
40459;SDS011;26164;51.138;16.952;2023-04-12T13:41:22;3.17;;;1.10;;
40459;SDS011;26164;51.138;16.952;2023-04-12T14:22:12;4.57;;;1.30;;
40459;SDS011;26164;51.138;16.952;2023-04-12T14:25:20;4.55;;;1.00;;
40459;SDS011;26164;51.138;16.952;2023-04-12T14:28:42;4.13;;;0.98;;
40459;SDS011;26164;51.138;16.952;2023-04-12T14:31:22;4.13;;;1.20;;
40459;SDS011;26164;51.138;16.952;2023-04-12T14:33:51;3.95;;;1.02;;
40459;SDS011;26164;51.138;16.952;2023-04-12T14:36:34;4.00;;;1.20;;
40459;SDS011;26164;51.138;16.952;2023-04-12T14:39:20;6.40;;;1.60;;
40459;SDS011;26164;51.138;16.952;2023-04-12T14:42:04;4.20;;;1.27;;
40459;SDS011;26164;51.138;16.952;2023-04-12T14:44:41;3.75;;;1.30;;
40459;SDS011;26164;51.138;16.952;2023-04-12T14:47:32;4.53;;;1.30;;
40459;SDS011;26164;51.138;16.952;2023-04-12T14:50:14;3.03;;;1.30;;
40459;SDS011;26164;51.138;16.952;2023-04-12T14:52:46;3.85;;;1.20;;
40459;SDS011;26164;51.138;16.952;2023-04-12T14:55:12;5.22;;;1.30;;
40459;SDS011;26164;51.138;16.952;2023-04-12T14:57:39;4.75;;;1.23;;
40459;SDS011;26164;51.138;16.952;2023-04-12T15:00:08;3.33;;;1.20;;
40459;SDS011;26164;51.138;16.952;2023-04-12T15:02:54;7.20;;;1.30;;
40459;SDS011;26164;51.138;16.952;2023-04-12T15:05:22;3.25;;;1.27;;
40459;SDS011;26164;51.138;16.952;2023-04-12T15:07:51;2.50;;;1.00;;
40459;SDS011;26164;51.138;16.952;2023-04-12T15:10:19;5.68;;;1.27;;
40459;SDS011;26164;51.138;16.952;2023-04-12T15:12:45;3.97;;;1.10;;
40459;SDS011;26164;51.138;16.952;2023-04-12T15:15:12;4.05;;;1.17;;
40459;SDS011;26164;51.138;16.952;2023-04-12T15:17:38;6.00;;;1.23;;
40459;SDS011;26164;51.138;16.952;2023-04-12T15:20:04;3.40;;;1.30;;
40459;SDS011;26164;51.138;16.952;2023-04-12T15:22:39;3.58;;;1.20;;
40459;SDS011;26164;51.138;16.952;2023-04-12T15:25:06;4.72;;;1.10;;
40459;SDS011;26164;51.138;16.952;2023-04-12T15:27:38;3.65;;;1.10;;
40459;SDS011;26164;51.138;16.952;2023-04-12T15:30:46;2.10;;;1.00;;
40459;SDS011;26164;51.138;16.952;2023-04-12T15:33:12;2.45;;;0.80;;
40459;SDS011;26164;51.138;16.952;2023-04-12T15:35:43;5.38;;;1.30;;
40459;SDS011;26164;51.138;16.952;2023-04-12T15:38:11;7.57;;;1.35;;
40459;SDS011;26164;51.138;16.952;2023-04-12T15:40:38;5.78;;;1.13;;
40459;SDS011;26164;51.138;16.952;2023-04-12T15:43:04;3.95;;;1.33;;
40459;SDS011;26164;51.138;16.952;2023-04-12T15:45:32;4.78;;;1.52;;
40459;SDS011;26164;51.138;16.952;2023-04-12T15:47:58;5.60;;;1.75;;
40459;SDS011;26164;51.138;16.952;2023-04-12T15:50:25;3.85;;;1.40;;
40459;SDS011;26164;51.138;16.952;2023-04-12T15:52:53;6.20;;;1.25;;
40459;SDS011;26164;51.138;16.952;2023-04-12T15:55:22;5.32;;;1.40;;
40459;SDS011;26164;51.138;16.952;2023-04-12T15:57:47;4.18;;;1.30;;
40459;SDS011;26164;51.138;16.952;2023-04-12T16:00:13;6.57;;;1.60;;
40459;SDS011;26164;51.138;16.952;2023-04-12T16:02:52;6.38;;;1.63;;
40459;SDS011;26164;51.138;16.952;2023-04-12T16:05:32;4.78;;;1.40;;
40459;SDS011;26164;51.138;16.952;2023-04-12T16:08:07;5.43;;;1.48;;
40459;SDS011;26164;51.138;16.952;2023-04-12T16:10:46;4.53;;;1.15;;
40459;SDS011;26164;51.138;16.952;2023-04-12T16:13:17;4.45;;;1.38;;
40459;SDS011;26164;51.138;16.952;2023-04-12T16:16:38;3.97;;;1.25;;
40459;SDS011;26164;51.138;16.952;2023-04-12T16:20:15;4.75;;;1.23;;
40459;SDS011;26164;51.138;16.952;2023-04-12T16:22:58;5.30;;;1.33;;
40459;SDS011;26164;51.138;16.952;2023-04-12T16:28:22;3.90;;;1.20;;
40459;SDS011;26164;51.138;16.952;2023-04-12T16:30:49;5.30;;;1.25;;
40459;SDS011;26164;51.138;16.952;2023-04-12T16:33:14;5.32;;;1.48;;
40459;SDS011;26164;51.138;16.952;2023-04-12T16:35:40;6.97;;;1.70;;
40459;SDS011;26164;51.138;16.952;2023-04-12T16:38:07;6.40;;;2.00;;
40459;SDS011;26164;51.138;16.952;2023-04-12T16:40:40;5.10;;;1.40;;
40459;SDS011;26164;51.138;16.952;2023-04-12T16:43:06;6.03;;;1.88;;
40459;SDS011;26164;51.138;16.952;2023-04-12T16:45:38;4.57;;;1.83;;
40459;SDS011;26164;51.138;16.952;2023-04-12T16:48:06;5.18;;;1.80;;
40459;SDS011;26164;51.138;16.952;2023-04-12T16:50:32;5.60;;;1.77;;
40459;SDS011;26164;51.138;16.952;2023-04-12T16:52:58;6.05;;;1.80;;
40459;SDS011;26164;51.138;16.952;2023-04-12T16:55:26;6.35;;;2.10;;
40459;SDS011;26164;51.138;16.952;2023-04-12T16:57:54;6.03;;;1.52;;
40459;SDS011;26164;51.138;16.952;2023-04-12T17:00:22;4.78;;;1.70;;
40459;SDS011;26164;51.138;16.952;2023-04-12T17:02:52;5.43;;;1.70;;
40459;SDS011;26164;51.138;16.952;2023-04-12T17:05:18;6.38;;;1.63;;
40459;SDS011;26164;51.138;16.952;2023-04-12T17:07:45;3.78;;;1.63;;
40459;SDS011;26164;51.138;16.952;2023-04-12T17:10:15;6.30;;;1.88;;
40459;SDS011;26164;51.138;16.952;2023-04-12T17:12:44;5.53;;;1.50;;
40459;SDS011;26164;51.138;16.952;2023-04-12T17:15:14;7.20;;;1.70;;
40459;SDS011;26164;51.138;16.952;2023-04-12T17:18:18;11.40;;;2.10;;
40459;SDS011;26164;51.138;16.952;2023-04-12T17:20:45;5.03;;;1.80;;
40459;SDS011;26164;51.138;16.952;2023-04-12T17:23:11;7.18;;;1.80;;
40459;SDS011;26164;51.138;16.952;2023-04-12T17:25:41;7.25;;;2.03;;
40459;SDS011;26164;51.138;16.952;2023-04-12T17:28:07;4.55;;;2.05;;
40459;SDS011;26164;51.138;16.952;2023-04-12T17:30:36;8.13;;;1.98;;
40459;SDS011;26164;51.138;16.952;2023-04-12T17:33:03;7.07;;;2.17;;
40459;SDS011;26164;51.138;16.952;2023-04-12T17:35:35;7.70;;;2.50;;
40459;SDS011;26164;51.138;16.952;2023-04-12T17:38:01;7.65;;;2.85;;
40459;SDS011;26164;51.138;16.952;2023-04-12T17:40:32;5.68;;;2.08;;
40459;SDS011;26164;51.138;16.952;2023-04-12T17:42:59;7.30;;;2.47;;
40459;SDS011;26164;51.138;16.952;2023-04-12T17:45:25;10.43;;;2.72;;
40459;SDS011;26164;51.138;16.952;2023-04-12T17:47:54;6.03;;;2.58;;
40459;SDS011;26164;51.138;16.952;2023-04-12T17:50:23;12.65;;;2.83;;
40459;SDS011;26164;51.138;16.952;2023-04-12T17:52:51;7.57;;;2.70;;
40459;SDS011;26164;51.138;16.952;2023-04-12T17:58:14;6.55;;;2.70;;
40459;SDS011;26164;51.138;16.952;2023-04-12T18:00:42;7.28;;;3.17;;
40459;SDS011;26164;51.138;16.952;2023-04-12T18:03:08;8.52;;;2.85;;
40459;SDS011;26164;51.138;16.952;2023-04-12T18:05:39;8.45;;;3.20;;
40459;SDS011;26164;51.138;16.952;2023-04-12T18:08:06;8.30;;;2.92;;
40459;SDS011;26164;51.138;16.952;2023-04-12T18:10:38;8.18;;;3.30;;
40459;SDS011;26164;51.138;16.952;2023-04-12T18:13:04;9.55;;;3.15;;
40459;SDS011;26164;51.138;16.952;2023-04-12T18:15:31;6.55;;;3.35;;
40459;SDS011;26164;51.138;16.952;2023-04-12T18:17:57;7.95;;;3.10;;
40459;SDS011;26164;51.138;16.952;2023-04-12T18:20:23;9.15;;;3.72;;
40459;SDS011;26164;51.138;16.952;2023-04-12T18:22:49;9.95;;;3.58;;
40459;SDS011;26164;51.138;16.952;2023-04-12T18:25:15;10.80;;;4.10;;
40459;SDS011;26164;51.138;16.952;2023-04-12T18:27:44;11.73;;;4.10;;
40459;SDS011;26164;51.138;16.952;2023-04-12T18:30:13;16.63;;;3.78;;
40459;SDS011;26164;51.138;16.952;2023-04-12T18:32:41;11.10;;;4.13;;
40459;SDS011;26164;51.138;16.952;2023-04-12T18:35:08;11.93;;;4.35;;
40459;SDS011;26164;51.138;16.952;2023-04-12T18:37:34;9.95;;;3.75;;
40459;SDS011;26164;51.138;16.952;2023-04-12T18:40:00;9.90;;;3.60;;
40459;SDS011;26164;51.138;16.952;2023-04-12T18:42:26;10.13;;;4.10;;
40459;SDS011;26164;51.138;16.952;2023-04-12T18:44:52;10.05;;;4.25;;
40459;SDS011;26164;51.138;16.952;2023-04-12T18:47:24;12.10;;;3.97;;
40459;SDS011;26164;51.138;16.952;2023-04-12T18:49:56;11.55;;;4.43;;